createdAt,value
2022-09-28T00:03:18.005Z,148357.47
2022-09-28T00:08:22.889Z,148426.97
2022-09-28T00:13:26.541Z,148473.28
2022-09-28T00:18:30.356Z,148401.22
2022-09-28T00:23:56.465Z,148335.63
2022-09-28T00:29:01.948Z,148322.78
2022-09-28T00:34:06.327Z,148267.47
2022-09-28T00:39:12.094Z,148228.88
2022-09-28T00:44:38.722Z,148199.31
2022-09-28T00:49:50.299Z,148213.47
2022-09-28T00:55:01.273Z,148203.13
2022-09-28T01:00:07.597Z,148216.03
2022-09-28T01:05:16.581Z,148209.59
2022-09-28T01:10:24.060Z,148183.84
2022-09-28T01:15:30.319Z,148208.25
2022-09-28T01:20:51.312Z,148190.28
2022-09-28T01:26:02.010Z,148192.84
2022-09-28T01:31:11.032Z,148178.72
2022-09-28T01:36:20.731Z,148169.72
2022-09-28T01:41:26.219Z,148177.44
2022-09-28T01:46:38.271Z,148137.59
2022-09-28T01:51:47.713Z,148156.88
2022-09-28T01:56:55.475Z,148159.44
2022-09-28T02:02:05.654Z,148149.16
2022-09-28T02:07:14.542Z,148146.59
2022-09-28T02:12:26.802Z,148140.16
2022-09-28T02:17:31.819Z,148069.47
2022-09-28T02:22:40.747Z,148099.00
2022-09-28T02:27:51.089Z,148032.19
2022-09-28T02:33:00.197Z,148041.19
2022-09-28T02:38:04.384Z,148001.34
2022-09-28T02:43:15.862Z,147976.97
2022-09-28T02:48:43.648Z,147933.28
2022-09-28T02:54:21.532Z,147905.00
2022-09-28T02:59:41.191Z,147865.22
2022-09-28T03:04:58.968Z,147852.34
2022-09-28T03:10:14.750Z,147793.31
2022-09-28T03:15:22.487Z,147794.59
2022-09-28T03:20:27.956Z,147816.41
2022-09-28T03:25:31.908Z,147854.94
2022-09-28T03:30:35.310Z,147829.25
2022-09-28T03:35:40.390Z,147825.41
2022-09-28T03:40:43.941Z,147845.97
2022-09-28T03:45:53.148Z,147822.84
2022-09-28T03:50:59.785Z,147758.66
2022-09-28T03:56:04.407Z,147783.03
2022-09-28T04:01:16.392Z,147753.50
2022-09-28T04:06:23.569Z,147777.94
2022-09-28T04:11:26.982Z,147776.59
2022-09-28T04:16:30.533Z,147753.50
2022-09-28T04:21:46.786Z,147734.22
2022-09-28T04:26:51.234Z,147720.13
2022-09-28T04:31:56.095Z,147711.13
2022-09-28T04:37:21.088Z,147691.91
2022-09-28T04:42:24.438Z,147709.84
2022-09-28T04:47:30.488Z,147699.59
2022-09-28T04:53:11.260Z,147749.66
2022-09-28T04:58:15.705Z,147777.94
2022-09-28T05:03:22.508Z,147820.25
2022-09-28T05:08:51.043Z,147865.22
2022-09-28T05:13:54.451Z,147817.69
2022-09-28T05:18:57.967Z,147842.06
2022-09-28T05:24:07.487Z,147790.75
2022-09-28T05:29:12.978Z,147799.75
2022-09-28T05:34:35.240Z,147794.59
2022-09-28T05:39:40.125Z,147831.84
2022-09-28T05:44:43.455Z,147793.31
2022-09-28T05:49:47.001Z,147826.69
2022-09-28T05:54:51.871Z,147884.44
2022-09-28T05:59:55.344Z,147894.72
2022-09-28T06:04:59.159Z,147962.84
2022-09-28T06:10:04.012Z,148064.31
2022-09-28T06:15:17.549Z,147973.13
2022-09-28T06:20:22.977Z,147924.28
2022-09-28T06:25:43.090Z,147991.06
2022-09-28T06:30:48.306Z,148034.75
2022-09-28T06:35:54.567Z,148027.09
2022-09-28T06:40:59.943Z,148537.63
2022-09-28T06:46:03.615Z,149407.59
2022-09-28T06:51:07.565Z,149643.91
2022-09-28T06:56:33.095Z,149765.38
2022-09-28T07:01:36.849Z,149479.94
2022-09-28T07:06:56.129Z,149443.81
2022-09-28T07:12:19.213Z,149357.31
2022-09-28T07:17:27.484Z,149696.88
2022-09-28T07:22:42.302Z,150038.06
2022-09-28T07:27:50.438Z,150173.91
2022-09-28T07:33:15.097Z,150022.56
2022-09-28T07:38:38.382Z,149690.38
2022-09-28T07:43:43.259Z,149587.09
2022-09-28T07:48:46.614Z,149596.16
2022-09-28T07:53:58.627Z,149202.47
2022-09-28T07:59:20.387Z,149163.81
2022-09-28T08:04:43.208Z,149130.31
2022-09-28T08:09:47.570Z,148998.78
2022-09-28T08:15:06.913Z,148936.91
2022-09-28T08:20:37.541Z,148942.03
2022-09-28T08:25:40.991Z,149292.81
2022-09-28T08:30:48.577Z,149397.28
2022-09-28T08:36:14.898Z,149006.47
2022-09-28T08:41:40.703Z,149145.75
2022-09-28T08:46:57.669Z,149426.97
2022-09-28T08:52:31.155Z,149605.19
2022-09-28T08:57:59.187Z,149112.22
2022-09-28T09:03:07.401Z,149092.88
2022-09-28T09:08:27.302Z,149187.03
2022-09-28T09:14:09.041Z,149357.31
2022-09-28T09:19:20.445Z,149341.81
2022-09-28T09:24:47.848Z,149411.50
2022-09-28T09:30:03.844Z,149288.91
2022-09-28T09:35:26.466Z,149341.81
2022-09-28T09:40:48.645Z,149094.16
2022-09-28T09:46:18.451Z,149039.97
2022-09-28T09:51:40.898Z,149264.41
2022-09-28T09:56:52.810Z,149429.53
2022-09-28T10:02:28.178Z,149357.31
2022-09-28T10:07:48.846Z,149512.22
2022-09-28T10:12:53.252Z,149641.34
2022-09-28T10:18:00.283Z,149665.88
2022-09-28T10:23:37.675Z,149853.22
2022-09-28T10:28:48.692Z,149824.81
2022-09-28T10:33:54.431Z,149581.91
2022-09-28T10:38:59.496Z,149525.13
2022-09-28T10:44:08.772Z,149695.56
2022-09-28T10:49:46.791Z,149841.59
2022-09-28T10:54:55.076Z,149855.84
2022-09-28T10:59:59.829Z,149809.28
2022-09-28T11:05:27.907Z,149787.31
2022-09-28T11:10:39.704Z,149987.66
2022-09-28T11:15:50.338Z,150223.09
2022-09-28T11:21:18.537Z,149974.75
2022-09-28T11:26:42.710Z,149872.59
2022-09-28T11:31:53.960Z,149782.19
2022-09-28T11:37:12.788Z,149775.69
2022-09-28T11:42:34.198Z,149806.72
2022-09-28T11:47:48.308Z,149919.16
2022-09-28T11:53:00.980Z,149897.16
2022-09-28T11:58:21.437Z,150084.69
2022-09-28T12:03:34.117Z,150184.25
2022-09-28T12:08:42.600Z,150091.13
2022-09-28T12:14:27.692Z,149805.44
2022-09-28T12:19:37.271Z,149703.34
2022-09-28T12:24:45.748Z,149672.34
2022-09-28T12:29:56.687Z,149756.31
2022-09-28T12:35:00.132Z,149897.16
2022-09-28T12:40:37.071Z,150101.47
2022-09-28T12:46:13.721Z,150159.69
2022-09-28T12:51:33.603Z,150091.13
2022-09-28T12:56:43.254Z,150110.53
2022-09-28T13:02:10.597Z,150199.75
2022-09-28T13:07:21.734Z,150089.84
2022-09-28T13:12:41.489Z,149882.94
2022-09-28T13:17:52.249Z,149824.81
2022-09-28T13:23:06.051Z,149738.22
2022-09-28T13:28:15.701Z,149693.00
2022-09-28T13:33:30.531Z,149645.19
2022-09-28T13:38:49.667Z,149619.38
2022-09-28T13:44:22.443Z,149606.47
2022-09-28T13:49:40.663Z,149580.63
2022-09-28T13:55:01.574Z,149574.19
2022-09-28T14:00:16.550Z,149535.44
2022-09-28T14:05:42.461Z,149429.53
2022-09-28T14:10:52.216Z,149386.94
2022-09-28T14:16:15.575Z,149352.13
2022-09-28T14:21:50.015Z,149357.31
2022-09-28T14:27:24.614Z,149383.09
2022-09-28T14:32:37.572Z,149375.34
2022-09-28T14:38:05.440Z,149370.22
2022-09-28T14:43:28.170Z,149374.06
2022-09-28T14:48:57.776Z,149377.97
2022-09-28T14:54:05.568Z,149300.50
2022-09-28T14:59:36.370Z,149334.09
2022-09-28T15:05:04.363Z,149366.34
2022-09-28T15:10:32.961Z,149344.38
2022-09-28T15:15:40.229Z,149357.31
2022-09-28T15:20:47.833Z,149372.78
2022-09-28T15:26:07.305Z,149357.31
2022-09-28T15:31:27.506Z,149042.59
2022-09-28T15:36:33.570Z,148890.53
2022-09-28T15:41:38.557Z,148733.34
2022-09-28T15:46:44.276Z,148647.03
2022-09-28T15:51:53.258Z,148622.59
2022-09-28T15:57:00.012Z,148627.72
2022-09-28T16:02:12.739Z,148578.81
2022-09-28T16:07:38.800Z,148562.06
2022-09-28T16:12:48.443Z,148578.81
2022-09-28T16:17:55.376Z,148631.59
2022-09-28T16:23:05.775Z,148683.06
2022-09-28T16:28:26.426Z,148680.50
2022-09-28T16:33:32.773Z,148692.13
2022-09-28T16:38:37.583Z,148701.16
2022-09-28T16:43:42.561Z,148699.88
2022-09-28T16:48:49.586Z,148679.22
2022-09-28T16:54:11.511Z,148689.56
2022-09-28T16:59:17.129Z,148717.91
2022-09-28T17:04:20.634Z,148717.91
2022-09-28T17:10:02.436Z,148720.47
2022-09-28T17:15:08.421Z,148748.78
2022-09-28T17:20:22.497Z,148770.69
2022-09-28T17:25:28.779Z,148782.31
2022-09-28T17:30:33.955Z,148753.97
2022-09-28T17:35:39.843Z,148848.00
2022-09-28T17:40:54.042Z,148890.53
2022-09-28T17:46:03.725Z,148893.09
2022-09-28T17:51:17.713Z,148922.75
2022-09-28T17:56:34.029Z,148885.34
2022-09-28T18:01:40.216Z,148918.84
2022-09-28T18:06:44.540Z,148868.63
2022-09-28T18:11:48.547Z,148877.59
2022-09-28T18:16:53.563Z,148887.91
2022-09-28T18:21:58.391Z,148884.06
2022-09-28T18:27:02.181Z,148864.72
2022-09-28T18:32:21.275Z,148854.41
2022-09-28T18:37:28.503Z,148824.78
2022-09-28T18:42:35.736Z,148783.59
2022-09-28T18:47:41.248Z,148846.72
2022-09-28T18:52:47.409Z,148832.53
2022-09-28T18:57:54.710Z,148774.56
2022-09-28T19:03:00.061Z,148756.53
2022-09-28T19:08:03.813Z,148748.78
2022-09-28T19:13:07.477Z,148738.53
2022-09-28T19:18:12.220Z,148706.34
2022-09-28T19:23:15.715Z,148665.06
2022-09-28T19:28:19.129Z,148654.78
2022-09-28T19:33:24.007Z,148652.22
2022-09-28T19:38:29.660Z,148658.63
2022-09-28T19:43:35.209Z,148640.56
2022-09-28T19:48:42.435Z,148641.91
2022-09-28T19:53:54.768Z,148635.44
2022-09-28T19:58:58.473Z,148614.84
2022-09-28T20:04:05.177Z,148621.31
2022-09-28T20:09:23.659Z,148589.13
2022-09-28T20:14:38.051Z,148589.13
2022-09-28T20:19:45.071Z,148626.44
2022-09-28T20:24:48.417Z,148710.19
2022-09-28T20:29:51.732Z,148708.91
2022-09-28T20:34:56.432Z,148735.91
2022-09-28T20:40:00.998Z,148712.75
2022-09-28T20:45:05.214Z,148702.44
2022-09-28T20:50:11.468Z,148697.31
2022-09-28T20:55:15.777Z,148667.63
2022-09-28T21:00:19.196Z,148645.75
2022-09-28T21:05:41.809Z,148687.00
2022-09-28T21:10:48.429Z,148685.69
2022-09-28T21:15:52.371Z,148692.13
2022-09-28T21:20:58.210Z,148694.69
2022-09-28T21:26:09.695Z,148710.19
2022-09-28T21:31:15.228Z,148683.06
2022-09-28T21:36:20.367Z,148712.75
2022-09-28T21:41:24.184Z,148702.44
2022-09-28T21:46:33.791Z,148676.66
2022-09-28T21:51:39.733Z,148676.66
2022-09-28T21:56:43.133Z,148670.19
2022-09-28T22:01:48.212Z,148652.22
2022-09-28T22:06:53.019Z,148573.66
2022-09-28T22:11:56.650Z,148604.56
2022-09-28T22:17:00.042Z,148638.00
2022-09-28T22:22:04.751Z,148622.59
2022-09-28T22:27:08.825Z,148583.94
2022-09-28T22:32:12.161Z,148604.56
2022-09-28T22:37:16.879Z,148600.72
2022-09-28T22:42:21.112Z,148522.16
2022-09-28T22:47:24.495Z,148567.25
2022-09-28T22:52:29.195Z,148577.53
2022-09-28T22:57:32.657Z,148556.94
2022-09-28T23:02:36.247Z,148549.22
2022-09-28T23:07:41.035Z,148511.91
2022-09-28T23:12:44.499Z,148483.59
2022-09-28T23:17:52.033Z,148484.88
2022-09-28T23:22:56.786Z,148466.84
2022-09-28T23:28:00.179Z,148443.69
2022-09-28T23:33:03.482Z,148470.72
2022-09-28T23:38:08.674Z,148463.00
2022-09-28T23:43:12.249Z,148473.28
2022-09-28T23:48:15.618Z,148488.69
2022-09-28T23:53:20.331Z,148460.44
2022-09-28T23:58:24.270Z,148463.00
